Time;durP1;ratioP1;P1;durP2;ratioP2;P2;SDS_P1;SDS_P2;PMS_P1;PMS_P2;Temp;Humidity;BMP_temperature;BMP_pressure;BME280_temperature;BME280_humidity;BME280_pressure;Samples;Min_cycle;Max_cycle;Signal;HPM_P1;HPM_P2
2021/08/26 00:01:01;;;;;;;13.40;2.72;;;;;;;;;;5039462;28;20028;-82
2021/08/26 00:06:16;;;;;;;13.38;2.60;;;;;;;;;;5041224;28;20032;-81
2021/08/26 00:08:42;;;;;;;4.97;2.25;;;;;;;;;;5040397;28;20021;-82
2021/08/26 00:11:08;;;;;;;11.27;2.22;;;;;;;;;;5041556;28;20083;-82
2021/08/26 00:13:34;;;;;;;10.55;2.08;;;;;;;;;;5040396;28;20059;-83
2021/08/26 00:15:59;;;;;;;10.00;2.17;;;;;;;;;;5039828;28;20060;-83
2021/08/26 00:18:25;;;;;;;7.90;2.30;;;;;;;;;;5040637;28;20025;-82
2021/08/26 00:20:53;;;;;;;8.52;2.67;;;;;;;;;;5040108;28;20068;-82
2021/08/26 00:23:22;;;;;;;8.13;2.00;;;;;;;;;;5039194;28;20037;-82
2021/08/26 00:25:49;;;;;;;6.97;2.47;;;;;;;;;;5036170;28;20076;-83
2021/08/26 00:28:14;;;;;;;8.80;2.30;;;;;;;;;;5019405;28;20038;-82
2021/08/26 00:30:40;;;;;;;4.78;1.85;;;;;;;;;;5020524;28;20029;-80
2021/08/26 00:33:06;;;;;;;7.00;2.22;;;;;;;;;;5018634;28;20034;-83
2021/08/26 00:35:32;;;;;;;7.25;2.30;;;;;;;;;;5022472;28;20034;-83
2021/08/26 00:37:57;;;;;;;6.70;2.20;;;;;;;;;;5039720;28;20036;-82
2021/08/26 00:40:22;;;;;;;7.90;2.60;;;;;;;;;;5041811;28;20036;-83
2021/08/26 00:42:49;;;;;;;8.65;2.35;;;;;;;;;;5041140;28;20033;-81
2021/08/26 00:45:14;;;;;;;13.50;2.50;;;;;;;;;;5040753;28;20087;-82
2021/08/26 00:47:44;;;;;;;7.80;2.42;;;;;;;;;;5038593;28;20470;-82
2021/08/26 00:50:10;;;;;;;9.95;2.72;;;;;;;;;;5039626;28;20029;-79
2021/08/26 00:52:37;;;;;;;8.88;2.50;;;;;;;;;;5039780;28;20026;-84
2021/08/26 00:55:04;;;;;;;7.28;2.67;;;;;;;;;;5039067;28;20021;-82
2021/08/26 00:57:29;;;;;;;6.57;2.42;;;;;;;;;;5039704;28;20038;-83
2021/08/26 00:59:55;;;;;;;12.25;2.67;;;;;;;;;;5041076;28;20025;-82
2021/08/26 01:02:39;;;;;;;8.68;2.47;;;;;;;;;;5039408;28;20037;-83
2021/08/26 01:05:28;;;;;;;8.15;2.55;;;;;;;;;;5040705;28;20036;-83
2021/08/26 01:08:00;;;;;;;9.65;2.60;;;;;;;;;;5026170;28;20045;-83
2021/08/26 01:10:29;;;;;;;6.85;2.92;;;;;;;;;;5041096;28;20029;-83
2021/08/26 01:12:56;;;;;;;16.25;3.10;;;;;;;;;;5039346;28;20041;-81
2021/08/26 01:15:22;;;;;;;11.98;3.15;;;;;;;;;;5038833;28;20093;-81
2021/08/26 01:17:48;;;;;;;12.82;3.10;;;;;;;;;;5035336;28;20029;-82
2021/08/26 01:20:14;;;;;;;9.27;2.97;;;;;;;;;;5020670;28;20036;-83
2021/08/26 01:22:39;;;;;;;12.07;2.85;;;;;;;;;;5018736;28;20580;-83
2021/08/26 01:25:15;;;;;;;11.15;2.60;;;;;;;;;;5030013;28;20025;-80
2021/08/26 01:27:49;;;;;;;12.35;2.50;;;;;;;;;;5040541;28;20481;-82
2021/08/26 01:30:18;;;;;;;12.02;2.50;;;;;;;;;;5040407;28;20037;-80
2021/08/26 01:32:44;;;;;;;12.70;2.60;;;;;;;;;;5038510;28;20083;-80
2021/08/26 01:35:11;;;;;;;10.90;2.78;;;;;;;;;;5039375;28;20033;-82
2021/08/26 01:37:40;;;;;;;12.40;2.63;;;;;;;;;;5040454;28;20033;-82
2021/08/26 01:40:07;;;;;;;14.63;2.90;;;;;;;;;;5039591;28;20029;-81
2021/08/26 01:42:32;;;;;;;11.48;2.88;;;;;;;;;;5037958;28;20067;-81
2021/08/26 01:44:58;;;;;;;18.98;3.40;;;;;;;;;;5038802;28;20049;-81
2021/08/26 01:47:23;;;;;;;9.60;2.97;;;;;;;;;;5039168;28;20036;-82
2021/08/26 01:49:51;;;;;;;16.50;3.25;;;;;;;;;;5038111;28;20022;-83
2021/08/26 01:52:19;;;;;;;17.67;2.78;;;;;;;;;;5039098;28;20030;-82
2021/08/26 01:54:52;;;;;;;12.73;2.80;;;;;;;;;;5037885;28;20112;-83
2021/08/26 01:57:19;;;;;;;15.63;2.80;;;;;;;;;;5037778;28;20033;-81
2021/08/26 01:59:45;;;;;;;12.82;2.92;;;;;;;;;;5037771;28;20025;-81
2021/08/26 02:02:10;;;;;;;17.63;2.85;;;;;;;;;;5037517;28;20036;-81
2021/08/26 02:04:35;;;;;;;13.70;3.08;;;;;;;;;;5037522;28;20029;-81
2021/08/26 02:07:01;;;;;;;14.30;2.80;;;;;;;;;;5040046;28;20029;-81
2021/08/26 02:09:26;;;;;;;18.40;3.83;;;;;;;;;;5039526;28;20025;-81
2021/08/26 02:11:52;;;;;;;9.82;2.63;;;;;;;;;;5040706;28;20033;-81
2021/08/26 02:14:17;;;;;;;12.82;2.70;;;;;;;;;;5039089;28;20108;-80
2021/08/26 02:16:42;;;;;;;15.02;3.40;;;;;;;;;;5040109;28;20037;-81
2021/08/26 02:19:08;;;;;;;13.27;2.70;;;;;;;;;;5039463;28;20041;-82
2021/08/26 02:21:33;;;;;;;13.60;3.22;;;;;;;;;;5039586;28;20029;-82
2021/08/26 02:23:58;;;;;;;14.30;2.83;;;;;;;;;;5038525;28;20025;-82
2021/08/26 02:26:24;;;;;;;14.15;3.00;;;;;;;;;;5037567;28;20025;-79
2021/08/26 02:28:49;;;;;;;17.55;2.60;;;;;;;;;;5037953;28;20033;-80
2021/08/26 02:31:14;;;;;;;15.50;2.58;;;;;;;;;;5037470;28;20026;-80
2021/08/26 02:33:40;;;;;;;12.80;2.88;;;;;;;;;;5054530;28;20385;-80
2021/08/26 02:36:05;;;;;;;14.18;2.75;;;;;;;;;;5039398;28;20025;-80
2021/08/26 02:38:30;;;;;;;17.35;3.10;;;;;;;;;;5035457;28;20075;-79
2021/08/26 02:40:56;;;;;;;12.27;3.13;;;;;;;;;;5048682;28;20474;-77
2021/08/26 02:43:21;;;;;;;18.58;3.55;;;;;;;;;;5033596;28;20386;-78
2021/08/26 02:45:46;;;;;;;15.57;3.35;;;;;;;;;;5032609;28;20550;-80
2021/08/26 02:48:12;;;;;;;14.95;3.35;;;;;;;;;;5032749;28;20026;-78
2021/08/26 02:50:37;;;;;;;14.77;4.03;;;;;;;;;;5032257;28;20033;-79
2021/08/26 02:53:03;;;;;;;17.33;3.22;;;;;;;;;;5035251;28;20026;-79
2021/08/26 02:55:28;;;;;;;14.77;3.05;;;;;;;;;;5032179;28;20116;-78
2021/08/26 02:57:54;;;;;;;14.27;3.17;;;;;;;;;;5033187;28;20109;-77
2021/08/26 03:00:19;;;;;;;16.63;3.28;;;;;;;;;;5032907;28;20444;-78
2021/08/26 03:02:44;;;;;;;12.30;2.80;;;;;;;;;;5033263;28;20029;-79
2021/08/26 03:05:10;;;;;;;14.82;3.22;;;;;;;;;;5032336;28;20378;-78
2021/08/26 03:07:35;;;;;;;13.93;2.72;;;;;;;;;;5033800;28;20052;-78
2021/08/26 03:10:00;;;;;;;16.88;3.15;;;;;;;;;;5033125;28;20017;-78
2021/08/26 03:12:26;;;;;;;21.08;3.53;;;;;;;;;;5036506;28;20025;-79
2021/08/26 03:14:51;;;;;;;19.10;3.45;;;;;;;;;;5036049;28;20354;-79
2021/08/26 03:17:16;;;;;;;19.88;4.10;;;;;;;;;;5035285;28;20052;-79
2021/08/26 03:19:42;;;;;;;14.40;2.80;;;;;;;;;;5037118;28;20504;-79
2021/08/26 03:22:07;;;;;;;19.88;3.58;;;;;;;;;;5036321;28;20034;-79
2021/08/26 03:24:32;;;;;;;14.82;3.67;;;;;;;;;;5035289;28;20026;-77
2021/08/26 03:26:57;;;;;;;17.63;3.22;;;;;;;;;;5037493;28;20037;-79
2021/08/26 03:29:23;;;;;;;17.90;3.13;;;;;;;;;;5040391;28;20034;-79
2021/08/26 03:31:49;;;;;;;21.60;3.47;;;;;;;;;;5036709;28;20033;-78
2021/08/26 03:34:14;;;;;;;17.85;3.38;;;;;;;;;;5036879;28;20031;-79
2021/08/26 03:36:39;;;;;;;14.05;3.72;;;;;;;;;;5052007;28;20143;-77
2021/08/26 03:39:05;;;;;;;20.58;3.97;;;;;;;;;;5036087;28;20435;-78
2021/08/26 03:41:30;;;;;;;17.27;3.33;;;;;;;;;;5034477;28;20128;-78
2021/08/26 03:43:55;;;;;;;16.63;3.30;;;;;;;;;;5035603;28;20033;-79
2021/08/26 03:46:21;;;;;;;23.63;3.65;;;;;;;;;;5035860;28;20418;-78
2021/08/26 03:48:46;;;;;;;19.58;3.53;;;;;;;;;;5036741;28;20045;-78
2021/08/26 03:51:12;;;;;;;21.23;4.40;;;;;;;;;;5035777;28;20021;-78
2021/08/26 03:53:37;;;;;;;19.60;3.90;;;;;;;;;;5035167;28;20386;-78
2021/08/26 03:56:05;;;;;;;15.32;4.03;;;;;;;;;;5035821;28;20036;-78
2021/08/26 03:58:31;;;;;;;16.33;3.80;;;;;;;;;;5037613;28;20477;-77
2021/08/26 04:00:56;;;;;;;20.58;3.65;;;;;;;;;;5037992;28;20087;-77
2021/08/26 04:03:21;;;;;;;11.13;3.00;;;;;;;;;;5037255;28;20372;-78
2021/08/26 04:05:46;;;;;;;22.15;3.20;;;;;;;;;;5037926;28;20515;-77
2021/08/26 04:08:12;;;;;;;22.27;3.53;;;;;;;;;;5037376;28;20537;-77
2021/08/26 04:10:37;;;;;;;15.50;3.60;;;;;;;;;;5036874;28;20028;-77
2021/08/26 04:13:02;;;;;;;22.13;6.13;;;;;;;;;;5036465;28;20026;-78
2021/08/26 04:15:28;;;;;;;17.38;3.40;;;;;;;;;;5036673;28;20052;-78
2021/08/26 04:17:53;;;;;;;19.25;4.22;;;;;;;;;;5036739;28;20033;-79
2021/08/26 04:20:19;;;;;;;22.23;3.47;;;;;;;;;;5035780;28;20036;-78
2021/08/26 04:22:44;;;;;;;14.65;3.40;;;;;;;;;;5036196;28;20045;-77
2021/08/26 04:25:10;;;;;;;16.10;3.03;;;;;;;;;;5030945;28;20022;-79
2021/08/26 04:27:36;;;;;;;15.07;4.10;;;;;;;;;;5025351;28;20022;-78
2021/08/26 04:30:03;;;;;;;16.98;3.78;;;;;;;;;;5034577;28;20085;-78
2021/08/26 04:32:28;;;;;;;18.55;3.70;;;;;;;;;;5034339;28;20033;-78
2021/08/26 04:34:54;;;;;;;14.05;3.22;;;;;;;;;;5036600;28;20386;-79
2021/08/26 04:37:19;;;;;;;22.48;3.50;;;;;;;;;;5034493;28;20022;-78
2021/08/26 04:39:44;;;;;;;19.25;4.25;;;;;;;;;;5034647;28;20501;-77
2021/08/26 04:42:10;;;;;;;16.77;3.20;;;;;;;;;;5034974;28;20033;-77
2021/08/26 04:44:35;;;;;;;17.30;3.20;;;;;;;;;;5033225;28;20474;-77
2021/08/26 04:47:00;;;;;;;15.20;3.00;;;;;;;;;;5033426;28;20018;-77
2021/08/26 04:49:26;;;;;;;14.52;3.17;;;;;;;;;;5034181;28;20022;-77
2021/08/26 04:51:51;;;;;;;21.30;3.72;;;;;;;;;;5036836;28;20040;-78
2021/08/26 04:54:18;;;;;;;18.30;3.50;;;;;;;;;;5043551;28;20085;-77
2021/08/26 04:56:43;;;;;;;17.00;3.03;;;;;;;;;;5040218;28;20032;-78
2021/08/26 04:59:09;;;;;;;20.55;3.00;;;;;;;;;;5040812;28;20037;-78
2021/08/26 05:01:34;;;;;;;15.32;3.17;;;;;;;;;;5041637;28;20033;-78
2021/08/26 05:04:00;;;;;;;15.88;2.90;;;;;;;;;;5041624;28;20087;-78
2021/08/26 05:06:26;;;;;;;15.88;2.65;;;;;;;;;;5040921;28;20473;-78
2021/08/26 05:08:51;;;;;;;17.95;3.05;;;;;;;;;;5037803;28;20108;-79
2021/08/26 05:11:18;;;;;;;7.47;2.70;;;;;;;;;;5039103;28;20085;-78
2021/08/26 05:13:43;;;;;;;21.98;2.97;;;;;;;;;;5038912;28;20025;-80
2021/08/26 05:16:09;;;;;;;11.25;2.33;;;;;;;;;;5037759;28;20033;-79
2021/08/26 05:18:34;;;;;;;14.95;3.65;;;;;;;;;;5039462;28;20079;-79
2021/08/26 05:20:59;;;;;;;15.27;2.75;;;;;;;;;;5037732;28;20017;-79
2021/08/26 05:23:25;;;;;;;13.82;1.98;;;;;;;;;;5037822;28;20030;-79
2021/08/26 05:25:50;;;;;;;18.65;3.45;;;;;;;;;;5038013;28;20106;-79
2021/08/26 05:28:15;;;;;;;11.25;2.20;;;;;;;;;;5036414;28;20542;-78
2021/08/26 05:30:41;;;;;;;20.25;3.22;;;;;;;;;;5035674;28;20564;-79
2021/08/26 05:33:06;;;;;;;23.23;2.95;;;;;;;;;;5035526;28;20048;-78
2021/08/26 05:35:31;;;;;;;22.58;2.92;;;;;;;;;;5036465;28;20045;-81
2021/08/26 05:37:57;;;;;;;20.13;3.00;;;;;;;;;;5038377;28;20048;-78
2021/08/26 05:40:22;;;;;;;18.33;3.30;;;;;;;;;;5038627;28;20025;-78
2021/08/26 05:42:48;;;;;;;14.07;2.50;;;;;;;;;;5039425;28;20036;-78
2021/08/26 05:45:13;;;;;;;17.05;3.67;;;;;;;;;;5037042;28;20021;-79
2021/08/26 05:47:38;;;;;;;16.27;2.28;;;;;;;;;;5040460;28;20022;-78
2021/08/26 05:50:05;;;;;;;13.73;2.20;;;;;;;;;;5040195;28;20025;-79
2021/08/26 05:52:30;;;;;;;14.70;2.95;;;;;;;;;;5037802;28;20395;-77
2021/08/26 05:54:55;;;;;;;14.00;2.53;;;;;;;;;;5038935;28;20048;-79
2021/08/26 05:57:21;;;;;;;23.73;2.83;;;;;;;;;;5037500;28;20017;-79
2021/08/26 05:59:46;;;;;;;11.73;2.30;;;;;;;;;;5039963;28;20085;-80
2021/08/26 06:02:11;;;;;;;8.43;2.70;;;;;;;;;;5038066;28;20049;-80
2021/08/26 06:04:36;;;;;;;15.02;2.05;;;;;;;;;;5054404;28;20140;-79
2021/08/26 06:07:02;;;;;;;21.00;2.67;;;;;;;;;;5039481;28;20083;-80
2021/08/26 06:09:27;;;;;;;16.15;2.78;;;;;;;;;;5038130;28;20486;-79
2021/08/26 06:11:53;;;;;;;12.75;2.30;;;;;;;;;;5037519;28;20489;-79
2021/08/26 06:14:18;;;;;;;11.02;2.20;;;;;;;;;;5019481;28;20471;-80
2021/08/26 06:16:43;;;;;;;13.65;2.50;;;;;;;;;;5018799;28;20486;-79
2021/08/26 06:19:08;;;;;;;13.95;2.38;;;;;;;;;;5019298;28;20479;-80
2021/08/26 06:21:34;;;;;;;16.13;2.80;;;;;;;;;;5018811;28;20046;-80
2021/08/26 06:24:00;;;;;;;14.25;3.25;;;;;;;;;;5032506;28;20117;-80
2021/08/26 06:26:25;;;;;;;13.27;2.28;;;;;;;;;;5018027;28;20037;-80
2021/08/26 06:28:51;;;;;;;15.55;2.85;;;;;;;;;;5019151;28;20038;-78
2021/08/26 06:31:16;;;;;;;15.88;2.75;;;;;;;;;;5018148;28;20025;-79
2021/08/26 06:33:43;;;;;;;19.48;2.83;;;;;;;;;;5033312;28;20021;-79
2021/08/26 06:36:09;;;;;;;18.00;2.78;;;;;;;;;;5037470;28;20034;-78
2021/08/26 06:38:34;;;;;;;14.98;2.42;;;;;;;;;;5038754;28;20044;-80
2021/08/26 06:41:02;;;;;;;12.05;2.53;;;;;;;;;;5037197;28;20043;-79
2021/08/26 06:43:27;;;;;;;13.93;2.08;;;;;;;;;;5034139;28;20034;-79
2021/08/26 06:45:52;;;;;;;12.07;2.22;;;;;;;;;;5022480;28;20026;-80
2021/08/26 06:48:18;;;;;;;17.88;3.85;;;;;;;;;;5023012;28;20417;-79
2021/08/26 06:50:43;;;;;;;15.18;2.72;;;;;;;;;;5020493;28;20032;-80
2021/08/26 06:53:09;;;;;;;16.60;2.75;;;;;;;;;;5030652;28;20393;-78
2021/08/26 06:55:34;;;;;;;16.05;2.50;;;;;;;;;;5041234;28;20040;-79
2021/08/26 06:57:59;;;;;;;7.88;2.28;;;;;;;;;;5041260;28;20025;-78
2021/08/26 07:00:25;;;;;;;13.98;2.40;;;;;;;;;;5040249;28;20025;-79
2021/08/26 07:02:51;;;;;;;15.00;2.67;;;;;;;;;;5040997;28;20029;-78
2021/08/26 07:05:16;;;;;;;16.45;2.67;;;;;;;;;;5040034;28;20412;-78
2021/08/26 07:07:42;;;;;;;15.55;2.55;;;;;;;;;;5039070;28;20105;-78
2021/08/26 07:10:07;;;;;;;13.38;2.60;;;;;;;;;;5041050;28;20030;-78
2021/08/26 07:12:33;;;;;;;13.55;2.22;;;;;;;;;;5040080;28;20052;-78
2021/08/26 07:14:59;;;;;;;15.75;3.03;;;;;;;;;;5039833;28;20021;-78
2021/08/26 07:17:25;;;;;;;12.43;2.35;;;;;;;;;;5039916;28;20035;-79
2021/08/26 07:19:51;;;;;;;11.15;2.40;;;;;;;;;;5039666;28;20097;-79
2021/08/26 07:22:16;;;;;;;9.82;2.00;;;;;;;;;;5036544;28;20025;-78
2021/08/26 07:24:42;;;;;;;14.23;2.50;;;;;;;;;;5035510;28;20093;-79
2021/08/26 07:27:07;;;;;;;14.98;2.00;;;;;;;;;;5020930;28;20112;-78
2021/08/26 07:29:32;;;;;;;22.67;3.60;;;;;;;;;;5020702;28;20037;-78
2021/08/26 07:31:58;;;;;;;18.58;3.00;;;;;;;;;;5033388;28;20135;-78
2021/08/26 07:34:23;;;;;;;41.72;15.18;;;;;;;;;;5038761;28;20021;-79
2021/08/26 07:36:48;;;;;;;20.17;2.50;;;;;;;;;;5041468;28;20064;-79
2021/08/26 07:39:14;;;;;;;17.35;2.70;;;;;;;;;;5041025;28;20030;-78
2021/08/26 07:41:39;;;;;;;19.55;3.47;;;;;;;;;;5035418;28;20034;-79
2021/08/26 07:44:04;;;;;;;14.43;3.10;;;;;;;;;;5019358;28;20064;-79
2021/08/26 07:46:30;;;;;;;15.00;3.05;;;;;;;;;;5020620;28;20030;-79
2021/08/26 07:48:55;;;;;;;17.60;2.85;;;;;;;;;;5020458;28;20099;-79
2021/08/26 07:51:20;;;;;;;15.27;2.65;;;;;;;;;;5025126;28;20069;-79
2021/08/26 07:53:46;;;;;;;17.98;2.80;;;;;;;;;;5034898;28;20109;-78
2021/08/26 07:56:11;;;;;;;13.98;2.70;;;;;;;;;;5034239;28;20481;-78
2021/08/26 07:58:37;;;;;;;19.90;3.40;;;;;;;;;;5034849;28;20461;-77
2021/08/26 08:01:03;;;;;;;23.83;4.13;;;;;;;;;;5031876;28;20512;-77
2021/08/26 08:03:28;;;;;;;18.25;4.15;;;;;;;;;;5018557;28;20040;-78
2021/08/26 08:05:53;;;;;;;22.23;4.03;;;;;;;;;;5017495;28;20368;-78
2021/08/26 08:08:19;;;;;;;18.92;3.80;;;;;;;;;;5017977;28;20041;-77
2021/08/26 08:10:44;;;;;;;20.90;4.60;;;;;;;;;;5032389;28;20029;-78
2021/08/26 08:13:10;;;;;;;17.77;3.20;;;;;;;;;;5036280;28;20025;-77
2021/08/26 08:15:36;;;;;;;17.38;3.33;;;;;;;;;;5036590;28;20021;-78
2021/08/26 08:18:02;;;;;;;19.13;3.60;;;;;;;;;;5037482;28;20029;-78
2021/08/26 08:20:27;;;;;;;20.88;3.60;;;;;;;;;;5037633;28;20040;-78
2021/08/26 08:22:52;;;;;;;14.00;2.97;;;;;;;;;;5036970;28;20029;-80
2021/08/26 08:25:18;;;;;;;25.77;4.03;;;;;;;;;;5037340;28;20025;-81
2021/08/26 08:27:43;;;;;;;17.58;3.70;;;;;;;;;;5040254;28;20116;-80
2021/08/26 08:30:09;;;;;;;16.20;3.10;;;;;;;;;;5036524;28;20375;-81
2021/08/26 08:32:35;;;;;;;16.67;3.80;;;;;;;;;;5020561;28;20026;-80
2021/08/26 08:35:00;;;;;;;19.08;4.15;;;;;;;;;;5018918;28;20045;-79
2021/08/26 08:37:25;;;;;;;20.10;3.63;;;;;;;;;;5020803;28;20033;-78
2021/08/26 08:39:51;;;;;;;18.95;4.13;;;;;;;;;;5023895;28;20048;-79
2021/08/26 08:42:20;;;;;;;22.45;4.18;;;;;;;;;;5041439;28;20030;-79
2021/08/26 08:44:46;;;;;;;21.25;4.38;;;;;;;;;;5041362;28;20025;-80
2021/08/26 08:47:12;;;;;;;19.92;4.50;;;;;;;;;;5040860;28;20029;-80
2021/08/26 08:49:41;;;;;;;23.20;4.40;;;;;;;;;;5038623;28;20093;-80
2021/08/26 08:52:07;;;;;;;17.63;3.45;;;;;;;;;;5040910;28;20103;-79
2021/08/26 08:54:33;;;;;;;22.48;4.00;;;;;;;;;;5039109;28;20017;-80
2021/08/26 08:56:58;;;;;;;14.07;3.55;;;;;;;;;;5040822;28;20032;-80
2021/08/26 08:59:28;;;;;;;20.30;4.47;;;;;;;;;;5039982;28;20021;-79
2021/08/26 09:01:53;;;;;;;21.52;4.10;;;;;;;;;;5038155;28;20049;-79
2021/08/26 09:04:19;;;;;;;25.63;4.03;;;;;;;;;;5039507;28;20029;-79
2021/08/26 09:06:46;;;;;;;24.17;4.30;;;;;;;;;;5054118;28;20059;-79
2021/08/26 09:09:12;;;;;;;29.38;4.45;;;;;;;;;;5039140;28;20025;-80
2021/08/26 09:11:48;;;;;;;18.02;4.05;;;;;;;;;;5039569;28;20029;-79
2021/08/26 09:14:14;;;;;;;25.40;4.32;;;;;;;;;;5039440;28;20045;-79
2021/08/26 09:16:42;;;;;;;27.10;4.80;;;;;;;;;;5037927;28;20032;-79
2021/08/26 09:19:24;;;;;;;23.73;4.10;;;;;;;;;;5038233;28;20025;-79
2021/08/26 09:21:51;;;;;;;23.60;4.30;;;;;;;;;;5038535;28;20032;-78
2021/08/26 09:24:17;;;;;;;22.42;4.13;;;;;;;;;;5038277;28;20075;-79
2021/08/26 09:26:47;;;;;;;27.17;4.22;;;;;;;;;;5039807;28;20035;-80
2021/08/26 09:29:14;;;;;;;16.80;3.88;;;;;;;;;;5040454;28;20112;-80
2021/08/26 09:31:39;;;;;;;26.23;4.40;;;;;;;;;;5040176;28;20029;-79
2021/08/26 09:34:17;;;;;;;26.83;4.43;;;;;;;;;;5039690;28;20056;-80
2021/08/26 09:36:48;;;;;;;18.42;3.95;;;;;;;;;;5037549;28;20112;-78
2021/08/26 09:39:23;;;;;;;20.77;4.10;;;;;;;;;;5037683;28;20111;-81
2021/08/26 09:42:04;;;;;;;28.17;5.35;;;;;;;;;;5038147;28;20035;-80
2021/08/26 09:44:34;;;;;;;14.47;3.57;;;;;;;;;;5037557;28;20036;-79
2021/08/26 09:47:01;;;;;;;23.30;4.28;;;;;;;;;;5037033;28;20036;-79
2021/08/26 09:49:30;;;;;;;22.15;4.35;;;;;;;;;;5038054;28;20029;-80
2021/08/26 09:52:13;;;;;;;18.60;3.53;;;;;;;;;;5037811;28;20113;-78
2021/08/26 09:54:41;;;;;;;;;;;;;;;;;;5037486;28;20021;-79
2021/08/26 09:57:39;;;;;;;17.98;2.85;;;;;;;;;;5037242;28;19931;-82
2021/08/26 10:00:05;;;;;;;16.55;3.22;;;;;;;;;;4994374;28;20037;-79
2021/08/26 10:02:32;;;;;;;20.90;4.65;;;;;;;;;;5037090;28;20029;-79
2021/08/26 10:04:58;;;;;;;20.27;4.03;;;;;;;;;;5036345;28;20030;-79
2021/08/26 10:07:25;;;;;;;24.02;5.22;;;;;;;;;;5037554;28;20056;-79
2021/08/26 10:09:50;;;;;;;22.33;4.20;;;;;;;;;;5038993;28;20064;-80
2021/08/26 10:12:16;;;;;;;20.00;4.00;;;;;;;;;;5038769;28;20033;-80
2021/08/26 10:14:44;;;;;;;24.13;3.92;;;;;;;;;;5039544;28;20029;-81
2021/08/26 10:17:10;;;;;;;15.00;3.72;;;;;;;;;;5037522;28;20036;-80
2021/08/26 10:19:36;;;;;;;20.67;3.85;;;;;;;;;;5039876;28;20505;-80
2021/08/26 10:22:03;;;;;;;17.35;3.72;;;;;;;;;;5042590;28;20048;-80
2021/08/26 10:24:29;;;;;;;24.13;4.18;;;;;;;;;;5042905;28;20080;-82
2021/08/26 10:27:08;;;;;;;21.13;3.60;;;;;;;;;;5043605;28;20033;-80
2021/08/26 10:29:35;;;;;;;17.05;3.53;;;;;;;;;;5042190;28;20033;-81
2021/08/26 10:32:02;;;;;;;21.90;4.53;;;;;;;;;;5059207;28;20034;-82
2021/08/26 10:34:29;;;;;;;17.50;3.42;;;;;;;;;;5042462;28;20028;-79
2021/08/26 10:36:54;;;;;;;13.07;3.08;;;;;;;;;;5041152;28;20048;-80
2021/08/26 10:39:35;;;;;;;21.17;3.92;;;;;;;;;;5041866;28;20030;-81
2021/08/26 10:42:19;;;;;;;23.75;3.63;;;;;;;;;;5043206;28;20029;-81
2021/08/26 10:45:06;;;;;;;22.65;3.65;;;;;;;;;;5040661;28;20044;-82
2021/08/26 10:47:47;;;;;;;18.77;3.72;;;;;;;;;;5041451;28;20125;-81
2021/08/26 10:50:21;;;;;;;15.68;3.35;;;;;;;;;;5041764;28;20030;-80
2021/08/26 10:53:06;;;;;;;16.42;3.78;;;;;;;;;;5057399;28;20026;-81
2021/08/26 10:55:40;;;;;;;21.60;3.88;;;;;;;;;;5037617;28;20156;-80
2021/08/26 10:58:20;;;;;;;24.65;3.88;;;;;;;;;;5021283;28;20036;-80
2021/08/26 11:00:47;;;;;;;18.77;4.40;;;;;;;;;;5021065;28;20028;-81
2021/08/26 11:03:45;;;;;;;17.15;4.00;;;;;;;;;;5022560;28;20033;-81
2021/08/26 11:06:16;;;;;;;19.05;4.07;;;;;;;;;;5009318;28;20136;-80
2021/08/26 11:08:44;;;;;;;18.80;3.53;;;;;;;;;;5041516;28;20071;-80
2021/08/26 11:11:29;;;;;;;16.52;4.10;;;;;;;;;;5041900;28;20024;-79
2021/08/26 11:14:05;;;;;;;17.73;3.55;;;;;;;;;;5040843;28;20381;-79
2021/08/26 11:16:38;;;;;;;15.93;4.13;;;;;;;;;;5040068;28;20041;-78
2021/08/26 11:19:16;;;;;;;17.80;3.47;;;;;;;;;;5041221;28;20028;-80
2021/08/26 11:21:41;;;;;;;19.38;4.30;;;;;;;;;;5041191;28;20478;-78
2021/08/26 11:24:16;;;;;;;22.30;3.50;;;;;;;;;;5040694;28;20026;-80
2021/08/26 11:26:48;;;;;;;13.65;2.95;;;;;;;;;;5040814;28;20052;-79
2021/08/26 11:29:17;;;;;;;;;;;;;;;;;;5041354;28;20099;-80
2021/08/26 11:31:43;;;;;;;14.82;2.80;;;;;;;;;;5040435;28;19909;-79
2021/08/26 11:34:08;;;;;;;16.02;2.85;;;;;;;;;;5056901;28;20025;-79
2021/08/26 11:36:34;;;;;;;13.30;2.58;;;;;;;;;;5041738;28;20375;-80
2021/08/26 11:38:59;;;;;;;13.55;3.60;;;;;;;;;;5040373;28;20053;-79
2021/08/26 11:41:25;;;;;;;17.05;3.90;;;;;;;;;;5039641;28;20379;-79
2021/08/26 11:43:51;;;;;;;18.00;3.03;;;;;;;;;;5040238;28;20033;-77
2021/08/26 11:46:17;;;;;;;13.45;3.33;;;;;;;;;;5039310;28;20106;-79
2021/08/26 11:48:47;;;;;;;16.08;3.08;;;;;;;;;;5036471;28;20151;-77
2021/08/26 11:51:27;;;;;;;13.95;2.88;;;;;;;;;;5035523;28;20490;-76
2021/08/26 11:53:52;;;;;;;19.67;3.80;;;;;;;;;;5034841;28;20052;-77
2021/08/26 11:56:18;;;;;;;13.18;2.90;;;;;;;;;;5034121;28;20394;-76
2021/08/26 11:58:43;;;;;;;16.45;3.03;;;;;;;;;;5035230;28;20045;-77
2021/08/26 12:01:09;;;;;;;12.07;3.20;;;;;;;;;;5030805;28;20068;-76
2021/08/26 12:03:34;;;;;;;10.13;2.50;;;;;;;;;;5014370;28;20473;-77
2021/08/26 12:06:09;;;;;;;15.57;3.28;;;;;;;;;;5014023;28;20033;-76
2021/08/26 12:08:46;;;;;;;9.85;3.03;;;;;;;;;;5015553;28;20582;-76
2021/08/26 12:11:12;;;;;;;15.90;4.35;;;;;;;;;;5030127;28;20032;-75
2021/08/26 12:13:38;;;;;;;10.85;3.08;;;;;;;;;;5034039;28;20048;-76
2021/08/26 12:16:03;;;;;;;18.58;3.17;;;;;;;;;;5035137;28;20029;-76
2021/08/26 12:18:30;;;;;;;18.98;3.75;;;;;;;;;;5034058;28;20030;-77
2021/08/26 12:21:08;;;;;;;15.13;3.38;;;;;;;;;;5033399;28;20037;-77
2021/08/26 12:23:37;;;;;;;14.18;3.05;;;;;;;;;;5033621;28;20021;-77
2021/08/26 12:26:10;;;;;;;12.25;3.30;;;;;;;;;;5033907;28;20053;-77
2021/08/26 12:28:42;;;;;;;16.27;2.92;;;;;;;;;;5035564;28;20111;-77
2021/08/26 12:31:09;;;;;;;12.60;3.25;;;;;;;;;;5031029;28;20077;-77
2021/08/26 12:33:34;;;;;;;10.75;3.03;;;;;;;;;;5033183;28;20025;-77
2021/08/26 12:36:01;;;;;;;9.68;2.47;;;;;;;;;;5034661;28;20074;-77
2021/08/26 12:38:36;;;;;;;12.98;3.25;;;;;;;;;;5034147;28;20036;-78
2021/08/26 12:41:19;;;;;;;17.20;3.50;;;;;;;;;;5035475;28;20025;-78
2021/08/26 12:43:54;;;;;;;12.32;2.67;;;;;;;;;;5035990;28;20025;-77
2021/08/26 12:46:22;;;;;;;15.23;3.75;;;;;;;;;;5034900;28;20075;-77
2021/08/26 12:48:51;;;;;;;11.68;2.88;;;;;;;;;;5034366;28;20122;-77
2021/08/26 12:51:16;;;;;;;12.13;3.20;;;;;;;;;;5050199;28;20026;-77
2021/08/26 12:54:08;;;;;;;13.80;2.92;;;;;;;;;;5034285;28;20113;-77
2021/08/26 12:56:48;;;;;;;13.98;4.00;;;;;;;;;;5035442;28;20067;-78
2021/08/26 12:59:15;;;;;;;21.38;4.53;;;;;;;;;;5034186;28;20397;-78
2021/08/26 13:01:48;;;;;;;14.88;3.47;;;;;;;;;;5033649;28;20071;-78
2021/08/26 13:04:23;;;;;;;14.60;3.33;;;;;;;;;;5034272;28;20044;-78
2021/08/26 13:06:54;;;;;;;13.77;3.17;;;;;;;;;;5034512;28;20056;-78
2021/08/26 13:09:34;;;;;;;15.18;3.38;;;;;;;;;;5033934;28;20032;-80
2021/08/26 13:12:06;;;;;;;27.23;4.90;;;;;;;;;;5036802;28;20033;-82
2021/08/26 13:14:43;;;;;;;25.27;4.93;;;;;;;;;;5039341;28;20371;-78
2021/08/26 13:17:11;;;;;;;15.52;3.78;;;;;;;;;;5040375;28;20108;-81
2021/08/26 13:19:42;;;;;;;21.15;4.47;;;;;;;;;;5039747;28;20486;-80
2021/08/26 13:22:28;;;;;;;20.27;4.10;;;;;;;;;;5054556;28;20029;-79
2021/08/26 13:24:55;;;;;;;20.10;3.60;;;;;;;;;;5037086;28;20655;-79
2021/08/26 13:27:22;;;;;;;14.55;3.38;;;;;;;;;;5038100;28;20021;-81
2021/08/26 13:29:49;;;;;;;18.63;3.90;;;;;;;;;;5038811;28;20034;-81
2021/08/26 13:32:15;;;;;;;15.32;3.25;;;;;;;;;;5037411;28;20025;-80
2021/08/26 13:34:42;;;;;;;14.23;3.90;;;;;;;;;;5032640;28;20017;-82
2021/08/26 13:37:08;;;;;;;19.63;4.20;;;;;;;;;;5039225;28;20039;-80
2021/08/26 13:39:33;;;;;;;18.50;4.10;;;;;;;;;;5037675;28;20030;-79
2021/08/26 13:41:59;;;;;;;17.17;3.85;;;;;;;;;;5032460;28;20125;-78
2021/08/26 13:44:24;;;;;;;20.85;4.30;;;;;;;;;;5016572;28;20037;-79
2021/08/26 13:46:50;;;;;;;21.63;3.60;;;;;;;;;;5017465;28;20409;-78
2021/08/26 13:49:15;;;;;;;12.50;3.35;;;;;;;;;;5016361;28;20125;-79
2021/08/26 13:51:45;;;;;;;11.93;3.10;;;;;;;;;;5027491;28;20025;-79
2021/08/26 13:54:10;;;;;;;18.90;4.03;;;;;;;;;;5037646;28;20022;-78
2021/08/26 13:56:37;;;;;;;22.95;4.43;;;;;;;;;;5036932;28;20389;-79
2021/08/26 13:59:02;;;;;;;16.38;3.65;;;;;;;;;;5037039;28;20025;-79
2021/08/26 14:01:28;;;;;;;14.73;3.95;;;;;;;;;;5032090;28;20037;-78
2021/08/26 14:03:53;;;;;;;16.60;3.58;;;;;;;;;;5016915;28;20156;-80
2021/08/26 14:06:20;;;;;;;16.83;5.30;;;;;;;;;;5018434;28;20026;-78
2021/08/26 14:08:45;;;;;;;16.83;4.18;;;;;;;;;;5039124;28;20567;-80
2021/08/26 14:11:10;;;;;;;15.80;3.40;;;;;;;;;;5040797;28;20068;-82
2021/08/26 14:13:36;;;;;;;18.88;3.95;;;;;;;;;;5040565;28;20017;-82
2021/08/26 14:16:01;;;;;;;20.20;3.92;;;;;;;;;;5039621;28;20049;-81
2021/08/26 14:18:27;;;;;;;20.98;4.03;;;;;;;;;;5039029;28;20033;-82
2021/08/26 14:20:52;;;;;;;20.80;4.47;;;;;;;;;;5039467;28;20034;-81
2021/08/26 14:23:18;;;;;;;15.43;3.08;;;;;;;;;;5039303;28;20032;-82
2021/08/26 14:25:44;;;;;;;11.38;2.60;;;;;;;;;;5039538;28;20028;-81
2021/08/26 14:28:09;;;;;;;13.63;2.58;;;;;;;;;;5042254;28;20037;-81
2021/08/26 14:30:35;;;;;;;12.63;2.83;;;;;;;;;;5040888;28;20030;-81
2021/08/26 14:33:01;;;;;;;15.00;2.50;;;;;;;;;;5022974;28;20065;-80
2021/08/26 14:35:26;;;;;;;8.55;2.13;;;;;;;;;;5021362;28;20025;-81